If you wish to contribute or participate in the discussions about articles you are invited to join SKYbrary as a registered user

 Actions

Kunsan Air Base

From SKYbrary Wiki

RKJK
Airport
ICAO: RKJK – IATA: KUV
Summary
Name Kunsan Air Base
Region
Territory South Korea KR.gif
Location , Cholla-bukto
Serving Kunsan
Elevation 8.839 m
29 ft
29 ft8.839 m
Type large airport
Coordinates 35° 54' 13.52" N, 126° 36' 57.26" E
Runways
Designator Length Width Surface ROPS
18/36 2743 m8,999.344 ft
46 m150.919 ft
CON yes/yes


METAR
Observation RKJK 280856Z 34009KT 6SM HZ CLR 21/17 A2995 RMK AO2A SLP146 T02090167 57007 $
Station Kunsan Ab
Date/Time 28 September 2020 08:56:00
Wind direction 340°
Wind speed 09 kts
Lowest cloud amount n/a
Temperature 20.9°C
Dew point 16.7°C
Humidity 76%
QNH hPa
Weather condition haze